Airfield :
LOGIN :

Register | Disclaimer

   EN    FR    IT 

 










Legend :    VFR   Marginal VFR   IFR   Intensive IFR   Very Intensive IFR
Visi :
Ceiling :
>= 8 km
>= 3000ft
5 to 8 km
1000 to 3000 ft
1500m to 5 km
500 to 1000 ft
800 to 1500m
200 to 500 ft
< 800m
< 200 ft
Symbols :   Thunderstorms  Fog  Heavy snow  Heavy precipitations  Wind > 20 kt
SIGMETs :     Misc.  Thunderstorms  Icing  Turbulence  Mountain Waves  Volcanic Ashes







- Airport Elevation : 1234 ft
- IATA code : LUX


ELLX - Luxembourg Findel

CURRENT METAR :
  • 201450Z 27011KT 9999 SCT040 BKN055 17/09 Q1025 NOSIG

EXPIRED METARs :
  • 201420Z 26011KT 9999 SCT040 BKN060 17/08 Q1025 NOSIG
  • 201350Z 25008KT 190V310 9999 SCT040 SCT060 18/08 Q1025 NOSIG
  • 201320Z 25012KT 220V280 9999 FEW040 18/08 Q1025 NOSIG
  • 201250Z 26011KT 230V290 9999 SCT040 18/08 Q1025 NOSIG
  • 201220Z 27011KT 230V320 9999 FEW030 17/08 Q1025 NOSIG

TAF TAF ELLX
Valid from the 20 at 12:00 until the 21 at 18:00 UTC


201100Z 2012/2118 27008KT 9999 SCT030
BECMG 2017/2020 CAVOK
BECMG 2102/2105 15004KT
TEMPO 2102/2106 2000 BR BKN003
TEMPO 2105/2113 4000 -RA -RADZ BKN004
BECMG 2113/2115 9999 BKN020
ATIS : +352 4798 27300
Met : +352 4798 27010 / 27050
No reported NOTAMs for that airfield.



MET'MAP, your aeronautical weather chart ! - Copyright ORBIFLY December 2007 - Disclaimer

ORBIFLY MET'MAP TEAM :

Programming & Development : Alexandra Zaïnal
Concept & Development : Baudouin d'Aumeries
Co-Development & Prog : Marc-Olivier Méhu
Technical & hardware support : Manuel Goepfert

Contact : metmap@orbifly.com




SOURCES & CREDITS :

   NOAA